createdAt,value
2022-09-15T00:00:43.342Z,69.21
2022-09-15T00:04:07.160Z,69.43
2022-09-15T00:07:12.681Z,69.49
2022-09-15T00:10:15.898Z,69.57
2022-09-15T00:13:20.298Z,70.11
2022-09-15T00:16:24.829Z,69.96
2022-09-15T00:19:27.785Z,69.94
2022-09-15T00:22:30.647Z,70.15
2022-09-15T00:25:33.632Z,70.14
2022-09-15T00:28:37.445Z,70.22
2022-09-15T00:31:40.382Z,70.29
2022-09-15T00:34:43.778Z,70.36
2022-09-15T00:37:47.046Z,70.69
2022-09-15T00:40:53.704Z,71.10
2022-09-15T00:43:56.676Z,71.06
2022-09-15T00:47:18.298Z,71.39
2022-09-15T00:50:23.621Z,71.34
2022-09-15T00:53:27.693Z,71.54
2022-09-15T00:56:33.840Z,71.57
2022-09-15T00:59:40.350Z,71.56
2022-09-15T01:02:45.358Z,71.48
2022-09-15T01:05:53.967Z,71.45
2022-09-15T01:09:18.167Z,71.67
2022-09-15T01:12:23.191Z,72.10
2022-09-15T01:15:32.587Z,71.95
2022-09-15T01:18:54.306Z,71.87
2022-09-15T01:22:29.000Z,71.83
2022-09-15T01:26:09.734Z,72.04
2022-09-15T01:29:40.748Z,72.11
2022-09-15T01:33:11.551Z,72.27
2022-09-15T01:36:28.444Z,72.58
2022-09-15T01:39:40.325Z,72.68
2022-09-15T01:42:45.357Z,72.92
2022-09-15T01:45:51.449Z,73.36
2022-09-15T01:48:56.809Z,73.66
2022-09-15T01:52:00.502Z,73.57
2022-09-15T01:55:12.580Z,73.93
2022-09-15T01:58:15.755Z,73.75
2022-09-15T02:02:01.277Z,74.07
2022-09-15T02:05:20.903Z,74.55
2022-09-15T02:08:33.642Z,74.69
2022-09-15T02:11:40.334Z,75.09
2022-09-15T02:14:56.265Z,74.74
2022-09-15T02:18:05.491Z,75.78
2022-09-15T02:21:19.922Z,75.43
2022-09-15T02:24:32.448Z,75.59
2022-09-15T02:27:44.903Z,75.63
2022-09-15T02:30:49.405Z,75.32
2022-09-15T02:34:00.337Z,75.76
2022-09-15T02:37:05.243Z,75.93
2022-09-15T02:40:09.134Z,75.80
2022-09-15T02:43:15.209Z,76.17
2022-09-15T02:46:21.267Z,76.66
2022-09-15T02:50:14.697Z,76.74
2022-09-15T02:53:19.508Z,76.68
2022-09-15T02:56:23.994Z,76.70
2022-09-15T02:59:27.172Z,76.86
2022-09-15T03:02:30.499Z,76.58
2022-09-15T03:05:33.529Z,76.46
2022-09-15T03:08:36.398Z,76.26
2022-09-15T03:11:39.983Z,76.31
2022-09-15T03:14:44.799Z,76.52
2022-09-15T03:17:48.893Z,76.64
2022-09-15T03:20:56.777Z,76.57
2022-09-15T03:24:00.874Z,76.83
2022-09-15T03:27:04.553Z,76.69
2022-09-15T03:30:09.406Z,76.58
2022-09-15T03:33:12.461Z,76.77
2022-09-15T03:36:15.323Z,76.92
2022-09-15T03:39:18.210Z,76.83
2022-09-15T03:42:21.063Z,77.20
2022-09-15T03:45:25.327Z,76.71
2022-09-15T03:48:31.215Z,76.86
2022-09-15T03:51:34.073Z,77.04
2022-09-15T03:54:38.173Z,77.00
2022-09-15T03:57:41.040Z,76.82
2022-09-15T04:00:44.353Z,77.03
2022-09-15T04:03:50.926Z,77.11
2022-09-15T04:06:54.260Z,77.42
2022-09-15T04:09:57.739Z,77.08
2022-09-15T04:13:00.611Z,77.08
2022-09-15T04:16:08.268Z,77.02
2022-09-15T04:19:12.184Z,76.95
2022-09-15T04:22:17.892Z,76.77
2022-09-15T04:25:21.298Z,76.79
2022-09-15T04:28:26.163Z,76.85
2022-09-15T04:31:29.243Z,76.53
2022-09-15T04:34:39.263Z,76.67
2022-09-15T04:37:44.239Z,77.06
2022-09-15T04:40:47.275Z,77.23
2022-09-15T04:43:50.388Z,77.25
2022-09-15T04:46:56.787Z,77.83
2022-09-15T04:50:00.024Z,77.73
2022-09-15T04:53:03.300Z,78.02
2022-09-15T04:56:14.292Z,78.36
2022-09-15T04:59:20.328Z,78.17
2022-09-15T05:02:25.886Z,78.06
2022-09-15T05:05:30.158Z,77.95
2022-09-15T05:08:33.663Z,77.77
2022-09-15T05:11:36.943Z,77.93
2022-09-15T05:14:40.143Z,77.73
2022-09-15T05:17:43.550Z,77.75
2022-09-15T05:20:46.930Z,77.46
2022-09-15T05:23:52.157Z,77.80
2022-09-15T05:26:55.437Z,77.70
2022-09-15T05:30:34.831Z,77.94
2022-09-15T05:34:02.288Z,77.89
2022-09-15T05:37:20.408Z,78.18
2022-09-15T05:41:12.546Z,77.74
2022-09-15T05:44:15.598Z,77.67
2022-09-15T05:47:18.691Z,77.40
2022-09-15T05:50:48.611Z,77.31
2022-09-15T05:53:52.143Z,77.12
2022-09-15T05:56:59.296Z,76.82
2022-09-15T06:00:02.814Z,76.71
2022-09-15T06:03:16.508Z,76.60
2022-09-15T06:06:48.500Z,76.33
2022-09-15T06:09:51.487Z,76.50
2022-09-15T06:12:55.483Z,76.47
2022-09-15T06:16:10.698Z,76.48
2022-09-15T06:19:14.105Z,76.48
2022-09-15T06:22:17.075Z,76.54
2022-09-15T06:25:20.047Z,76.62
2022-09-15T06:28:25.069Z,76.77
2022-09-15T06:31:30.100Z,76.93
2022-09-15T06:34:33.571Z,77.03
2022-09-15T06:37:36.952Z,76.94
2022-09-15T06:40:39.937Z,77.24
2022-09-15T06:43:43.289Z,77.42
2022-09-15T06:46:46.300Z,77.68
2022-09-15T06:49:49.553Z,77.66
2022-09-15T06:52:52.427Z,77.62
2022-09-15T06:55:55.299Z,77.61
2022-09-15T06:58:59.670Z,77.89
2022-09-15T07:02:10.046Z,78.14
2022-09-15T07:05:13.632Z,77.96
2022-09-15T07:08:17.416Z,77.98
2022-09-15T07:11:21.213Z,78.12
2022-09-15T07:14:26.327Z,77.99
2022-09-15T07:17:29.409Z,78.00
2022-09-15T07:20:34.249Z,78.05
2022-09-15T07:23:37.602Z,77.81
2022-09-15T07:26:41.389Z,78.06
2022-09-15T07:29:44.366Z,78.13
2022-09-15T07:32:47.231Z,78.15
2022-09-15T07:35:50.206Z,78.43
2022-09-15T07:38:53.437Z,78.30
2022-09-15T07:41:56.353Z,78.19
2022-09-15T07:44:59.225Z,78.06
2022-09-15T07:48:02.608Z,77.86
2022-09-15T07:51:05.789Z,77.79
2022-09-15T07:54:08.961Z,77.73
2022-09-15T07:57:12.036Z,77.47
2022-09-15T08:00:15.896Z,77.26
2022-09-15T08:03:19.215Z,77.01
2022-09-15T08:06:24.584Z,76.91
2022-09-15T08:10:19.019Z,76.81
2022-09-15T08:13:23.577Z,76.61
2022-09-15T08:16:43.427Z,76.39
2022-09-15T08:19:47.455Z,76.17
2022-09-15T08:22:53.308Z,76.43
2022-09-15T08:25:59.165Z,76.38
2022-09-15T08:29:02.515Z,76.31
2022-09-15T08:32:05.867Z,76.23
2022-09-15T08:35:09.693Z,76.11
2022-09-15T08:38:12.559Z,76.00
2022-09-15T08:41:22.703Z,75.83
2022-09-15T08:44:47.259Z,75.72
2022-09-15T08:47:56.305Z,75.62
2022-09-15T08:51:04.177Z,75.18
2022-09-15T08:54:14.697Z,74.92
2022-09-15T08:57:23.097Z,75.06
2022-09-15T09:00:27.391Z,74.67
2022-09-15T09:03:48.559Z,74.31
2022-09-15T09:07:19.109Z,74.37
2022-09-15T09:10:48.763Z,74.42
2022-09-15T09:13:57.367Z,74.01
2022-09-15T09:17:21.234Z,74.18
2022-09-15T09:20:43.835Z,73.42
2022-09-15T09:23:54.789Z,72.77
2022-09-15T09:26:59.306Z,73.11
2022-09-15T09:30:15.811Z,73.26
2022-09-15T09:33:31.334Z,72.74
2022-09-15T09:36:34.409Z,72.50
2022-09-15T09:39:40.253Z,72.09
2022-09-15T09:42:45.183Z,70.94
2022-09-15T09:45:48.173Z,70.57
2022-09-15T09:49:12.497Z,70.41
2022-09-15T09:52:45.568Z,70.13
2022-09-15T09:55:48.538Z,69.67
2022-09-15T09:58:52.427Z,70.50
2022-09-15T10:02:12.290Z,69.52
2022-09-15T10:05:20.573Z,69.84
2022-09-15T10:08:23.548Z,69.67
2022-09-15T10:11:59.293Z,69.65
2022-09-15T10:15:05.485Z,69.42
2022-09-15T10:18:28.235Z,69.36
2022-09-15T10:21:31.203Z,69.13
2022-09-15T10:24:38.888Z,69.26
2022-09-15T10:27:41.960Z,69.75
2022-09-15T10:31:03.875Z,69.93
2022-09-15T10:34:36.516Z,69.33
2022-09-15T10:37:53.935Z,68.50
2022-09-15T10:41:26.256Z,68.19
2022-09-15T10:44:52.572Z,66.58
2022-09-15T10:47:58.192Z,66.61
2022-09-15T10:51:17.770Z,67.15
2022-09-15T10:54:50.218Z,66.81
2022-09-15T10:58:19.267Z,66.75
2022-09-15T11:01:28.166Z,65.35
2022-09-15T11:05:00.204Z,66.34
2022-09-15T11:08:32.236Z,66.45
2022-09-15T11:11:48.713Z,66.31
2022-09-15T11:15:54.674Z,66.73
2022-09-15T11:19:18.467Z,66.37
2022-09-15T11:22:27.706Z,66.51
2022-09-15T11:25:35.745Z,66.59
2022-09-15T11:29:03.720Z,65.92
2022-09-15T11:32:15.997Z,66.36
2022-09-15T11:35:38.310Z,66.79
2022-09-15T11:38:54.998Z,67.09
2022-09-15T11:42:06.066Z,67.42
2022-09-15T11:45:20.612Z,66.89
2022-09-15T11:48:43.108Z,66.83
2022-09-15T11:52:03.887Z,67.22
2022-09-15T11:55:41.727Z,67.57
2022-09-15T11:59:12.045Z,67.67
2022-09-15T12:02:25.074Z,67.69
2022-09-15T12:05:36.322Z,67.55
2022-09-15T12:09:02.915Z,67.55
2022-09-15T12:12:14.620Z,67.55
2022-09-15T12:15:27.451Z,67.82
2022-09-15T12:18:47.551Z,67.81
2022-09-15T12:21:56.766Z,68.04
2022-09-15T12:25:22.761Z,67.75
2022-09-15T12:28:27.871Z,67.81
2022-09-15T12:31:32.464Z,67.99
2022-09-15T12:34:38.707Z,68.15
2022-09-15T12:37:56.869Z,67.99
2022-09-15T12:40:59.839Z,67.93
2022-09-15T12:44:18.273Z,67.99
2022-09-15T12:47:55.510Z,67.93
2022-09-15T12:51:05.340Z,68.30
2022-09-15T12:54:17.314Z,68.20
2022-09-15T12:57:30.132Z,68.03
2022-09-15T13:01:16.596Z,68.22
2022-09-15T13:04:13.831Z,67.61
2022-09-15T13:07:21.761Z,67.81
2022-09-15T13:10:39.567Z,67.18
2022-09-15T13:13:48.625Z,66.57
2022-09-15T13:17:14.721Z,66.63
2022-09-15T13:20:27.486Z,66.14
2022-09-15T13:23:38.952Z,66.06
2022-09-15T13:26:45.001Z,65.58
2022-09-15T13:30:00.310Z,65.25
2022-09-15T13:33:22.104Z,65.22
2022-09-15T13:40:48.151Z,64.99
2022-09-15T13:44:29.499Z,65.12
2022-09-15T13:47:44.445Z,63.82
2022-09-15T13:51:00.017Z,62.92
2022-09-15T13:54:06.558Z,62.38
2022-09-15T13:57:09.742Z,62.80
2022-09-15T14:00:22.290Z,63.50
2022-09-15T14:03:37.042Z,63.55
2022-09-15T14:06:43.364Z,63.45
2022-09-15T14:09:49.874Z,64.07
2022-09-15T14:12:54.714Z,64.42
2022-09-15T14:16:12.573Z,64.08
2022-09-15T14:19:33.976Z,64.13
2022-09-15T14:22:40.966Z,64.44
2022-09-15T14:25:46.178Z,64.33
2022-09-15T14:28:52.311Z,64.44
2022-09-15T14:32:01.979Z,64.36
2022-09-15T14:35:09.554Z,63.26
2022-09-15T14:38:24.227Z,63.91
2022-09-15T14:41:32.867Z,62.81
2022-09-15T14:48:08.716Z,62.00
2022-09-15T14:51:23.424Z,61.28
2022-09-15T14:54:33.062Z,61.23
2022-09-15T14:57:40.951Z,60.97
2022-09-15T15:00:53.266Z,62.00
2022-09-15T15:04:10.931Z,61.21
2022-09-15T15:07:27.896Z,60.60
2022-09-15T15:10:35.652Z,60.99
2022-09-15T15:13:42.627Z,60.37
2022-09-15T15:16:58.300Z,59.95
2022-09-15T15:20:10.513Z,60.28
2022-09-15T15:23:24.429Z,59.77
2022-09-15T15:26:35.907Z,59.57
2022-09-15T15:29:40.792Z,60.19
2022-09-15T15:32:44.415Z,59.97
2022-09-15T15:36:02.538Z,59.78
2022-09-15T15:39:08.020Z,60.41
2022-09-15T15:42:16.300Z,59.92
2022-09-15T15:45:25.878Z,60.35
2022-09-15T15:48:35.413Z,60.42
2022-09-15T15:51:41.753Z,60.33
2022-09-15T15:54:44.705Z,60.76
2022-09-15T15:57:53.650Z,60.79
2022-09-15T16:00:57.799Z,61.06
2022-09-15T16:04:05.059Z,60.62
2022-09-15T16:07:33.617Z,60.87
2022-09-15T16:10:50.229Z,60.91
2022-09-15T16:13:54.028Z,61.35
2022-09-15T16:16:59.944Z,61.29
2022-09-15T16:20:03.109Z,61.16
2022-09-15T16:23:07.421Z,61.26
2022-09-15T16:26:15.709Z,61.22
2022-09-15T16:29:18.578Z,61.18
2022-09-15T16:32:22.618Z,60.97
2022-09-15T16:35:35.617Z,60.50
2022-09-15T16:38:38.754Z,61.07
2022-09-15T16:41:42.031Z,60.96
2022-09-15T16:44:47.660Z,61.20
2022-09-15T16:47:51.660Z,61.09
2022-09-15T16:51:24.680Z,61.55
2022-09-15T16:54:20.499Z,61.50
2022-09-15T16:57:23.704Z,61.71
2022-09-15T17:00:29.197Z,61.16
2022-09-15T17:03:33.129Z,61.55
2022-09-15T17:06:36.761Z,61.68
2022-09-15T17:09:40.535Z,61.68
2022-09-15T17:12:44.304Z,61.70
2022-09-15T17:15:47.994Z,61.94
2022-09-15T17:18:50.961Z,61.79
2022-09-15T17:21:55.336Z,61.74
2022-09-15T17:24:58.438Z,61.84
2022-09-15T17:28:03.576Z,61.98
2022-09-15T17:31:12.347Z,62.09
2022-09-15T17:34:15.549Z,62.25
2022-09-15T17:37:18.622Z,62.54
2022-09-15T17:40:21.997Z,62.65
2022-09-15T17:43:35.041Z,62.44
2022-09-15T17:46:38.012Z,62.56
2022-09-15T17:49:41.678Z,62.65
2022-09-15T17:52:46.506Z,62.66
2022-09-15T17:55:51.598Z,62.54
2022-09-15T17:58:54.584Z,62.65
2022-09-15T18:01:58.543Z,62.68
2022-09-15T18:05:02.471Z,62.80
2022-09-15T18:08:06.469Z,62.71
2022-09-15T18:11:13.932Z,62.57
2022-09-15T18:14:17.419Z,62.55
2022-09-15T18:17:20.592Z,62.30
2022-09-15T18:20:27.513Z,62.36
2022-09-15T18:23:30.526Z,62.47
2022-09-15T18:26:34.356Z,62.42
2022-09-15T18:29:39.352Z,62.32
2022-09-15T18:32:43.028Z,62.42
2022-09-15T18:35:50.106Z,62.42
2022-09-15T18:38:53.376Z,62.56
2022-09-15T18:41:56.553Z,62.61
2022-09-15T18:44:59.728Z,62.66
2022-09-15T18:48:02.802Z,62.70
2022-09-15T18:51:23.646Z,62.55
2022-09-15T18:54:27.984Z,62.37
2022-09-15T18:57:37.707Z,62.51
2022-09-15T19:00:44.338Z,62.80
2022-09-15T19:03:47.747Z,62.77
2022-09-15T19:06:51.497Z,62.96
2022-09-15T19:09:56.900Z,62.91
2022-09-15T19:13:00.763Z,62.99
2022-09-15T19:16:06.749Z,62.75
2022-09-15T19:19:09.875Z,62.63
2022-09-15T19:22:17.557Z,62.43
2022-09-15T19:25:23.107Z,62.44
2022-09-15T19:28:27.800Z,62.24
2022-09-15T19:31:32.514Z,62.24
2022-09-15T19:34:41.545Z,62.65
2022-09-15T19:37:48.175Z,63.19
2022-09-15T19:40:54.632Z,63.59
2022-09-15T19:43:57.803Z,64.03
2022-09-15T19:47:00.981Z,64.32
2022-09-15T19:50:05.998Z,64.31
2022-09-15T19:53:10.311Z,64.34
2022-09-15T19:56:19.057Z,64.27
2022-09-15T19:59:22.283Z,64.30
2022-09-15T20:02:25.624Z,64.38
2022-09-15T20:05:28.945Z,64.58
2022-09-15T20:08:32.020Z,64.77
2022-09-15T20:11:35.931Z,64.73
2022-09-15T20:14:39.195Z,64.98
2022-09-15T20:17:42.614Z,64.93
2022-09-15T20:20:45.647Z,64.90
2022-09-15T20:23:48.876Z,64.86
2022-09-15T20:26:52.211Z,65.16
2022-09-15T20:29:57.432Z,65.24
2022-09-15T20:33:00.505Z,65.30
2022-09-15T20:36:17.907Z,65.52
2022-09-15T20:39:22.582Z,65.40
2022-09-15T20:42:25.490Z,65.63
2022-09-15T20:45:28.459Z,65.97
2022-09-15T20:48:33.609Z,66.35
2022-09-15T20:51:36.860Z,66.86
2022-09-15T20:54:39.838Z,66.78
2022-09-15T20:57:43.325Z,66.73
2022-09-15T21:00:49.063Z,66.78
2022-09-15T21:03:55.569Z,67.01
2022-09-15T21:06:59.520Z,66.83
2022-09-15T21:10:02.514Z,67.50
2022-09-15T21:13:07.292Z,67.51
2022-09-15T21:16:14.850Z,67.69
2022-09-15T21:19:18.347Z,67.92
2022-09-15T21:22:21.222Z,68.29
2022-09-15T21:25:24.508Z,68.81
2022-09-15T21:28:29.679Z,68.65
2022-09-15T21:31:33.469Z,68.67
2022-09-15T21:34:36.481Z,68.81
2022-09-15T21:37:39.659Z,69.11
2022-09-15T21:40:50.717Z,69.40
2022-09-15T21:43:55.340Z,69.92
2022-09-15T21:46:59.321Z,69.68
2022-09-15T21:50:03.115Z,69.95
2022-09-15T21:53:06.319Z,70.37
2022-09-15T21:56:12.155Z,70.03
2022-09-15T21:59:15.203Z,70.19
2022-09-15T22:02:18.442Z,69.74
2022-09-15T22:05:21.556Z,69.81
2022-09-15T22:08:24.834Z,70.40
2022-09-15T22:11:27.924Z,70.19
2022-09-15T22:14:31.494Z,70.32
2022-09-15T22:17:34.672Z,70.33
2022-09-15T22:20:37.646Z,69.89
2022-09-15T22:23:43.120Z,70.06
2022-09-15T22:26:46.042Z,70.56
2022-09-15T22:29:53.316Z,70.33
2022-09-15T22:32:56.287Z,70.68
2022-09-15T22:35:59.673Z,70.46
2022-09-15T22:39:06.820Z,70.51
2022-09-15T22:42:11.359Z,70.63
2022-09-15T22:45:14.547Z,70.65
2022-09-15T22:48:17.698Z,70.61
2022-09-15T22:51:20.669Z,70.58
2022-09-15T22:54:23.643Z,70.62
2022-09-15T22:57:26.513Z,70.64
2022-09-15T23:00:30.541Z,70.56
2022-09-15T23:03:34.217Z,70.63
2022-09-15T23:06:37.679Z,70.80
2022-09-15T23:09:41.879Z,70.73
2022-09-15T23:12:44.852Z,70.93
2022-09-15T23:15:49.300Z,70.90
2022-09-15T23:18:53.662Z,71.29
2022-09-15T23:21:56.635Z,71.33
2022-09-15T23:24:59.507Z,71.37
2022-09-15T23:28:02.785Z,71.65
2022-09-15T23:31:06.935Z,71.50
2022-09-15T23:34:10.160Z,71.67
2022-09-15T23:37:13.032Z,71.37
2022-09-15T23:40:16.449Z,71.29
2022-09-15T23:43:19.898Z,71.07
2022-09-15T23:46:22.797Z,71.12
2022-09-15T23:49:26.047Z,71.20
2022-09-15T23:52:29.015Z,71.22
2022-09-15T23:55:32.238Z,71.07
2022-09-15T23:58:35.165Z,71.08
